sensor_id;sensor_type;location;lat;lon;timestamp;P1;durP1;ratioP1;P2;durP2;ratioP2
74102;SDS011;62853;46.166;3.640;2023-04-24T00:01:46;36.10;;;27.98;;
74102;SDS011;62853;46.166;3.640;2023-04-24T00:04:12;40.17;;;28.92;;
74102;SDS011;62853;46.166;3.640;2023-04-24T00:06:41;38.33;;;29.38;;
74102;SDS011;62853;46.166;3.640;2023-04-24T00:09:07;36.80;;;30.17;;
74102;SDS011;62853;46.166;3.640;2023-04-24T00:11:34;23.05;;;12.15;;
74102;SDS011;62853;46.166;3.640;2023-04-24T00:14:01;41.97;;;30.65;;
74102;SDS011;62853;46.166;3.640;2023-04-24T00:16:26;24.70;;;13.27;;
74102;SDS011;62853;46.166;3.640;2023-04-24T00:18:52;37.33;;;30.45;;
74102;SDS011;62853;46.166;3.640;2023-04-24T00:21:21;38.83;;;29.30;;
74102;SDS011;62853;46.166;3.640;2023-04-24T00:23:46;40.03;;;30.55;;
74102;SDS011;62853;46.166;3.640;2023-04-24T00:26:12;31.00;;;18.25;;
74102;SDS011;62853;46.166;3.640;2023-04-24T00:28:38;35.53;;;27.75;;
74102;SDS011;62853;46.166;3.640;2023-04-24T00:31:04;19.83;;;11.32;;
74102;SDS011;62853;46.166;3.640;2023-04-24T00:33:29;21.33;;;11.68;;
74102;SDS011;62853;46.166;3.640;2023-04-24T00:35:55;33.72;;;28.05;;
74102;SDS011;62853;46.166;3.640;2023-04-24T00:38:20;20.27;;;11.50;;
74102;SDS011;62853;46.166;3.640;2023-04-24T00:40:47;38.17;;;29.05;;
74102;SDS011;62853;46.166;3.640;2023-04-24T00:43:13;23.77;;;12.40;;
74102;SDS011;62853;46.166;3.640;2023-04-24T00:45:38;25.55;;;12.30;;
74102;SDS011;62853;46.166;3.640;2023-04-24T00:48:04;39.85;;;28.58;;
74102;SDS011;62853;46.166;3.640;2023-04-24T00:50:29;24.00;;;12.75;;
74102;SDS011;62853;46.166;3.640;2023-04-24T00:52:55;40.17;;;29.67;;
74102;SDS011;62853;46.166;3.640;2023-04-24T00:55:21;47.25;;;30.60;;
74102;SDS011;62853;46.166;3.640;2023-04-24T00:57:46;45.47;;;31.73;;
74102;SDS011;62853;46.166;3.640;2023-04-24T01:00:13;24.30;;;12.82;;
74102;SDS011;62853;46.166;3.640;2023-04-24T01:02:39;42.65;;;31.25;;
74102;SDS011;62853;46.166;3.640;2023-04-24T01:05:10;24.48;;;13.73;;
74102;SDS011;62853;46.166;3.640;2023-04-24T01:07:40;41.00;;;32.85;;
74102;SDS011;62853;46.166;3.640;2023-04-24T01:10:10;32.63;;;14.93;;
74102;SDS011;62853;46.166;3.640;2023-04-24T01:12:37;42.25;;;32.15;;
74102;SDS011;62853;46.166;3.640;2023-04-24T01:15:02;48.85;;;36.83;;
74102;SDS011;62853;46.166;3.640;2023-04-24T01:17:28;43.47;;;34.67;;
74102;SDS011;62853;46.166;3.640;2023-04-24T01:19:54;33.03;;;14.98;;
74102;SDS011;62853;46.166;3.640;2023-04-24T01:22:21;31.05;;;14.35;;
74102;SDS011;62853;46.166;3.640;2023-04-24T01:24:47;46.92;;;35.83;;
74102;SDS011;62853;46.166;3.640;2023-04-24T01:27:12;40.03;;;16.38;;
74102;SDS011;62853;46.166;3.640;2023-04-24T01:29:38;39.83;;;16.77;;
74102;SDS011;62853;46.166;3.640;2023-04-24T01:32:04;47.83;;;37.38;;
74102;SDS011;62853;46.166;3.640;2023-04-24T01:34:30;32.83;;;16.17;;
74102;SDS011;62853;46.166;3.640;2023-04-24T01:36:56;37.33;;;14.88;;
74102;SDS011;62853;46.166;3.640;2023-04-24T01:39:23;36.88;;;16.52;;
74102;SDS011;62853;46.166;3.640;2023-04-24T01:41:50;51.85;;;37.50;;
74102;SDS011;62853;46.166;3.640;2023-04-24T01:44:17;55.33;;;41.40;;
74102;SDS011;62853;46.166;3.640;2023-04-24T01:46:43;49.22;;;39.80;;
74102;SDS011;62853;46.166;3.640;2023-04-24T01:49:08;48.88;;;38.70;;
74102;SDS011;62853;46.166;3.640;2023-04-24T01:51:34;58.72;;;42.60;;
74102;SDS011;62853;46.166;3.640;2023-04-24T01:53:59;38.17;;;18.10;;
74102;SDS011;62853;46.166;3.640;2023-04-24T01:56:25;39.17;;;17.95;;
74102;SDS011;62853;46.166;3.640;2023-04-24T01:58:50;36.00;;;17.25;;
74102;SDS011;62853;46.166;3.640;2023-04-24T02:01:19;51.95;;;41.17;;
74102;SDS011;62853;46.166;3.640;2023-04-24T02:03:45;39.78;;;24.15;;
74102;SDS011;62853;46.166;3.640;2023-04-24T02:06:10;50.42;;;40.60;;
74102;SDS011;62853;46.166;3.640;2023-04-24T02:08:36;46.13;;;24.30;;
74102;SDS011;62853;46.166;3.640;2023-04-24T02:11:01;54.72;;;42.50;;
74102;SDS011;62853;46.166;3.640;2023-04-24T02:13:27;37.35;;;19.77;;
74102;SDS011;62853;46.166;3.640;2023-04-24T02:15:53;51.78;;;37.88;;
74102;SDS011;62853;46.166;3.640;2023-04-24T02:18:18;36.58;;;17.95;;
74102;SDS011;62853;46.166;3.640;2023-04-24T02:20:43;43.63;;;38.90;;
74102;SDS011;62853;46.166;3.640;2023-04-24T02:23:09;47.50;;;38.50;;
74102;SDS011;62853;46.166;3.640;2023-04-24T02:25:34;38.03;;;21.85;;
74102;SDS011;62853;46.166;3.640;2023-04-24T02:28:00;46.70;;;37.58;;
74102;SDS011;62853;46.166;3.640;2023-04-24T02:30:25;34.40;;;17.50;;
74102;SDS011;62853;46.166;3.640;2023-04-24T02:32:51;37.92;;;16.98;;
74102;SDS011;62853;46.166;3.640;2023-04-24T02:35:16;32.88;;;17.08;;
74102;SDS011;62853;46.166;3.640;2023-04-24T02:37:42;40.03;;;35.55;;
74102;SDS011;62853;46.166;3.640;2023-04-24T02:40:07;46.30;;;38.95;;
74102;SDS011;62853;46.166;3.640;2023-04-24T02:42:34;40.80;;;17.13;;
74102;SDS011;62853;46.166;3.640;2023-04-24T02:44:59;28.75;;;14.00;;
74102;SDS011;62853;46.166;3.640;2023-04-24T02:47:25;40.83;;;33.17;;
74102;SDS011;62853;46.166;3.640;2023-04-24T02:49:50;38.33;;;34.13;;
74102;SDS011;62853;46.166;3.640;2023-04-24T02:52:16;41.15;;;33.85;;
74102;SDS011;62853;46.166;3.640;2023-04-24T02:54:42;35.50;;;21.98;;
74102;SDS011;62853;46.166;3.640;2023-04-24T02:57:07;35.15;;;31.23;;
74102;SDS011;62853;46.166;3.640;2023-04-24T02:59:33;32.03;;;15.10;;
74102;SDS011;62853;46.166;3.640;2023-04-24T03:01:58;41.45;;;35.05;;
74102;SDS011;62853;46.166;3.640;2023-04-24T03:04:24;23.20;;;13.40;;
74102;SDS011;62853;46.166;3.640;2023-04-24T03:06:50;37.15;;;31.88;;
74102;SDS011;62853;46.166;3.640;2023-04-24T03:09:18;36.42;;;29.83;;
74102;SDS011;62853;46.166;3.640;2023-04-24T03:11:43;24.63;;;16.98;;
74102;SDS011;62853;46.166;3.640;2023-04-24T03:14:09;37.63;;;28.45;;
74102;SDS011;62853;46.166;3.640;2023-04-24T03:16:34;25.73;;;12.65;;
74102;SDS011;62853;46.166;3.640;2023-04-24T03:18:59;34.53;;;29.35;;
74102;SDS011;62853;46.166;3.640;2023-04-24T03:21:25;28.92;;;13.45;;
74102;SDS011;62853;46.166;3.640;2023-04-24T03:23:51;35.55;;;27.08;;
74102;SDS011;62853;46.166;3.640;2023-04-24T03:26:17;23.92;;;12.50;;
74102;SDS011;62853;46.166;3.640;2023-04-24T03:28:42;36.30;;;30.17;;
74102;SDS011;62853;46.166;3.640;2023-04-24T03:31:07;27.23;;;12.18;;
74102;SDS011;62853;46.166;3.640;2023-04-24T03:33:33;23.60;;;12.65;;
74102;SDS011;62853;46.166;3.640;2023-04-24T03:35:58;34.63;;;28.40;;
74102;SDS011;62853;46.166;3.640;2023-04-24T03:38:24;33.05;;;26.17;;
74102;SDS011;62853;46.166;3.640;2023-04-24T03:40:49;24.48;;;16.08;;
74102;SDS011;62853;46.166;3.640;2023-04-24T03:43:14;34.63;;;26.77;;
74102;SDS011;62853;46.166;3.640;2023-04-24T03:45:40;21.45;;;12.65;;
74102;SDS011;62853;46.166;3.640;2023-04-24T03:48:05;31.58;;;25.40;;
74102;SDS011;62853;46.166;3.640;2023-04-24T03:50:31;28.08;;;17.23;;
74102;SDS011;62853;46.166;3.640;2023-04-24T03:52:56;21.55;;;12.07;;
74102;SDS011;62853;46.166;3.640;2023-04-24T03:55:21;22.20;;;11.27;;
74102;SDS011;62853;46.166;3.640;2023-04-24T03:57:47;28.75;;;25.20;;
74102;SDS011;62853;46.166;3.640;2023-04-24T04:00:12;35.15;;;27.83;;
74102;SDS011;62853;46.166;3.640;2023-04-24T04:02:39;29.15;;;24.58;;
74102;SDS011;62853;46.166;3.640;2023-04-24T04:05:04;18.73;;;10.93;;
74102;SDS011;62853;46.166;3.640;2023-04-24T04:07:30;21.27;;;10.80;;
74102;SDS011;62853;46.166;3.640;2023-04-24T04:09:55;25.85;;;23.02;;
74102;SDS011;62853;46.166;3.640;2023-04-24T04:12:20;26.35;;;23.75;;
74102;SDS011;62853;46.166;3.640;2023-04-24T04:14:46;26.98;;;24.00;;
74102;SDS011;62853;46.166;3.640;2023-04-24T04:17:11;19.17;;;10.98;;
74102;SDS011;62853;46.166;3.640;2023-04-24T04:19:37;26.00;;;22.45;;
74102;SDS011;62853;46.166;3.640;2023-04-24T04:22:02;19.13;;;9.48;;
74102;SDS011;62853;46.166;3.640;2023-04-24T04:24:28;26.58;;;22.50;;
74102;SDS011;62853;46.166;3.640;2023-04-24T04:26:53;19.95;;;8.98;;
74102;SDS011;62853;46.166;3.640;2023-04-24T04:29:21;23.23;;;9.52;;
74102;SDS011;62853;46.166;3.640;2023-04-24T04:31:47;16.60;;;10.35;;
74102;SDS011;62853;46.166;3.640;2023-04-24T04:34:13;24.75;;;22.17;;
74102;SDS011;62853;46.166;3.640;2023-04-24T04:36:39;23.65;;;21.15;;
74102;SDS011;62853;46.166;3.640;2023-04-24T04:39:05;24.02;;;21.63;;
74102;SDS011;62853;46.166;3.640;2023-04-24T04:41:31;17.98;;;12.32;;
74102;SDS011;62853;46.166;3.640;2023-04-24T04:44:00;16.55;;;9.52;;
74102;SDS011;62853;46.166;3.640;2023-04-24T04:46:25;24.67;;;20.80;;
74102;SDS011;62853;46.166;3.640;2023-04-24T04:48:51;17.63;;;8.38;;
74102;SDS011;62853;46.166;3.640;2023-04-24T04:51:17;19.42;;;8.85;;
74102;SDS011;62853;46.166;3.640;2023-04-24T04:53:43;23.52;;;21.02;;
74102;SDS011;62853;46.166;3.640;2023-04-24T04:56:08;16.27;;;8.93;;
74102;SDS011;62853;46.166;3.640;2023-04-24T04:58:33;24.00;;;21.60;;
74102;SDS011;62853;46.166;3.640;2023-04-24T05:00:59;15.85;;;8.90;;
74102;SDS011;62853;46.166;3.640;2023-04-24T05:03:24;23.63;;;19.98;;
74102;SDS011;62853;46.166;3.640;2023-04-24T05:05:50;16.92;;;8.52;;
74102;SDS011;62853;46.166;3.640;2023-04-24T05:08:15;14.82;;;8.98;;
74102;SDS011;62853;46.166;3.640;2023-04-24T05:10:41;25.83;;;19.45;;
74102;SDS011;62853;46.166;3.640;2023-04-24T05:13:06;13.85;;;8.07;;
74102;SDS011;62853;46.166;3.640;2023-04-24T05:15:31;15.95;;;14.27;;
74102;SDS011;62853;46.166;3.640;2023-04-24T05:17:57;16.35;;;7.40;;
74102;SDS011;62853;46.166;3.640;2023-04-24T05:20:22;9.15;;;5.40;;
74102;SDS011;62853;46.166;3.640;2023-04-24T05:22:48;10.32;;;5.63;;
74102;SDS011;62853;46.166;3.640;2023-04-24T05:25:13;9.15;;;5.93;;
74102;SDS011;62853;46.166;3.640;2023-04-24T05:27:39;6.40;;;3.33;;
74102;SDS011;62853;46.166;3.640;2023-04-24T05:30:04;9.38;;;3.15;;
74102;SDS011;62853;46.166;3.640;2023-04-24T05:32:30;13.57;;;7.22;;
74102;SDS011;62853;46.166;3.640;2023-04-24T05:34:55;6.93;;;2.70;;
74102;SDS011;62853;46.166;3.640;2023-04-24T05:37:21;9.13;;;6.72;;
74102;SDS011;62853;46.166;3.640;2023-04-24T05:39:46;7.28;;;3.47;;
74102;SDS011;62853;46.166;3.640;2023-04-24T05:42:12;10.55;;;5.50;;
74102;SDS011;62853;46.166;3.640;2023-04-24T05:44:37;17.42;;;6.53;;
74102;SDS011;62853;46.166;3.640;2023-04-24T05:47:03;3.42;;;2.53;;
74102;SDS011;62853;46.166;3.640;2023-04-24T05:49:28;8.20;;;2.85;;
74102;SDS011;62853;46.166;3.640;2023-04-24T05:51:56;7.43;;;2.40;;
74102;SDS011;62853;46.166;3.640;2023-04-24T05:54:22;6.10;;;2.47;;
74102;SDS011;62853;46.166;3.640;2023-04-24T05:56:48;5.00;;;2.55;;
74102;SDS011;62853;46.166;3.640;2023-04-24T05:59:19;11.68;;;6.53;;
74102;SDS011;62853;46.166;3.640;2023-04-24T06:01:44;12.20;;;2.85;;
74102;SDS011;62853;46.166;3.640;2023-04-24T06:04:10;12.82;;;3.65;;
74102;SDS011;62853;46.166;3.640;2023-04-24T06:06:43;4.70;;;2.70;;
74102;SDS011;62853;46.166;3.640;2023-04-24T06:09:09;10.02;;;6.78;;
74102;SDS011;62853;46.166;3.640;2023-04-24T06:11:37;5.65;;;2.70;;
74102;SDS011;62853;46.166;3.640;2023-04-24T06:14:02;6.53;;;3.45;;
74102;SDS011;62853;46.166;3.640;2023-04-24T06:16:30;7.28;;;3.60;;
74102;SDS011;62853;46.166;3.640;2023-04-24T06:18:56;14.45;;;9.48;;
74102;SDS011;62853;46.166;3.640;2023-04-24T06:21:21;12.52;;;4.85;;
74102;SDS011;62853;46.166;3.640;2023-04-24T06:23:47;22.15;;;12.30;;
74102;SDS011;62853;46.166;3.640;2023-04-24T06:26:15;9.35;;;4.63;;
74102;SDS011;62853;46.166;3.640;2023-04-24T06:28:41;16.95;;;12.90;;
74102;SDS011;62853;46.166;3.640;2023-04-24T06:31:06;14.30;;;6.10;;
74102;SDS011;62853;46.166;3.640;2023-04-24T06:33:39;14.35;;;6.32;;
74102;SDS011;62853;46.166;3.640;2023-04-24T06:36:07;14.23;;;6.78;;
74102;SDS011;62853;46.166;3.640;2023-04-24T06:38:32;22.33;;;17.65;;
74102;SDS011;62853;46.166;3.640;2023-04-24T06:40:59;14.85;;;7.53;;
74102;SDS011;62853;46.166;3.640;2023-04-24T06:43:24;18.05;;;8.13;;
74102;SDS011;62853;46.166;3.640;2023-04-24T06:45:50;19.45;;;8.77;;
74102;SDS011;62853;46.166;3.640;2023-04-24T06:48:15;20.48;;;9.50;;
74102;SDS011;62853;46.166;3.640;2023-04-24T06:50:41;36.90;;;26.58;;
74102;SDS011;62853;46.166;3.640;2023-04-24T06:53:09;39.88;;;28.48;;
74102;SDS011;62853;46.166;3.640;2023-04-24T06:55:41;42.08;;;29.75;;
74102;SDS011;62853;46.166;3.640;2023-04-24T06:58:08;32.53;;;13.25;;
74102;SDS011;62853;46.166;3.640;2023-04-24T07:00:34;23.17;;;11.52;;
74102;SDS011;62853;46.166;3.640;2023-04-24T07:03:02;35.00;;;15.73;;
74102;SDS011;62853;46.166;3.640;2023-04-24T07:05:28;27.08;;;13.07;;
74102;SDS011;62853;46.166;3.640;2023-04-24T07:07:54;48.40;;;31.98;;
74102;SDS011;62853;46.166;3.640;2023-04-24T07:10:19;28.13;;;13.52;;
74102;SDS011;62853;46.166;3.640;2023-04-24T07:12:46;31.23;;;13.15;;
74102;SDS011;62853;46.166;3.640;2023-04-24T07:15:14;36.63;;;18.80;;
74102;SDS011;62853;46.166;3.640;2023-04-24T07:17:39;31.05;;;14.07;;
74102;SDS011;62853;46.166;3.640;2023-04-24T07:20:08;48.55;;;33.30;;
74102;SDS011;62853;46.166;3.640;2023-04-24T07:22:35;33.45;;;14.70;;
74102;SDS011;62853;46.166;3.640;2023-04-24T07:25:03;35.47;;;16.35;;
74102;SDS011;62853;46.166;3.640;2023-04-24T07:27:29;29.33;;;13.30;;
74102;SDS011;62853;46.166;3.640;2023-04-24T07:29:55;27.63;;;13.27;;
74102;SDS011;62853;46.166;3.640;2023-04-24T07:32:20;42.75;;;29.60;;
74102;SDS011;62853;46.166;3.640;2023-04-24T07:34:46;27.75;;;12.15;;
74102;SDS011;62853;46.166;3.640;2023-04-24T07:37:13;36.15;;;24.33;;
74102;SDS011;62853;46.166;3.640;2023-04-24T07:39:39;25.52;;;10.55;;
74102;SDS011;62853;46.166;3.640;2023-04-24T07:42:04;16.80;;;8.82;;
74102;SDS011;62853;46.166;3.640;2023-04-24T07:44:30;20.05;;;9.13;;
74102;SDS011;62853;46.166;3.640;2023-04-24T07:46:56;21.27;;;8.48;;
74102;SDS011;62853;46.166;3.640;2023-04-24T07:49:24;41.70;;;20.27;;
74102;SDS011;62853;46.166;3.640;2023-04-24T07:51:50;40.85;;;20.10;;
74102;SDS011;62853;46.166;3.640;2023-04-24T07:54:15;22.67;;;9.02;;
74102;SDS011;62853;46.166;3.640;2023-04-24T07:56:43;20.67;;;7.70;;
74102;SDS011;62853;46.166;3.640;2023-04-24T07:59:08;25.95;;;8.85;;
74102;SDS011;62853;46.166;3.640;2023-04-24T08:01:35;40.15;;;19.77;;
74102;SDS011;62853;46.166;3.640;2023-04-24T08:04:01;22.38;;;10.18;;
74102;SDS011;62853;46.166;3.640;2023-04-24T08:06:26;21.83;;;9.35;;
74102;SDS011;62853;46.166;3.640;2023-04-24T08:08:57;36.10;;;11.35;;
74102;SDS011;62853;46.166;3.640;2023-04-24T08:11:23;32.45;;;11.80;;
74102;SDS011;62853;46.166;3.640;2023-04-24T08:13:49;53.50;;;26.75;;
74102;SDS011;62853;46.166;3.640;2023-04-24T08:16:14;30.65;;;10.73;;
74102;SDS011;62853;46.166;3.640;2023-04-24T08:18:40;24.80;;;10.88;;
74102;SDS011;62853;46.166;3.640;2023-04-24T08:21:06;29.42;;;10.88;;
74102;SDS011;62853;46.166;3.640;2023-04-24T08:23:31;23.17;;;9.05;;
74102;SDS011;62853;46.166;3.640;2023-04-24T08:25:59;55.97;;;25.13;;
74102;SDS011;62853;46.166;3.640;2023-04-24T08:28:24;47.33;;;24.05;;
74102;SDS011;62853;46.166;3.640;2023-04-24T08:30:50;23.05;;;9.18;;
74102;SDS011;62853;46.166;3.640;2023-04-24T08:33:23;47.17;;;22.08;;
74102;SDS011;62853;46.166;3.640;2023-04-24T08:35:48;20.60;;;7.65;;
74102;SDS011;62853;46.166;3.640;2023-04-24T08:38:18;26.33;;;8.02;;
74102;SDS011;62853;46.166;3.640;2023-04-24T08:40:44;20.70;;;8.60;;
74102;SDS011;62853;46.166;3.640;2023-04-24T08:43:11;39.88;;;17.63;;
74102;SDS011;62853;46.166;3.640;2023-04-24T08:45:37;23.08;;;7.57;;
74102;SDS011;62853;46.166;3.640;2023-04-24T08:48:03;21.02;;;8.27;;
74102;SDS011;62853;46.166;3.640;2023-04-24T08:50:29;45.67;;;18.05;;
74102;SDS011;62853;46.166;3.640;2023-04-24T08:52:56;35.92;;;16.40;;
74102;SDS011;62853;46.166;3.640;2023-04-24T08:55:22;19.77;;;7.07;;
74102;SDS011;62853;46.166;3.640;2023-04-24T08:57:50;41.05;;;16.70;;
74102;SDS011;62853;46.166;3.640;2023-04-24T09:00:18;23.80;;;6.40;;
74102;SDS011;62853;46.166;3.640;2023-04-24T09:02:44;21.20;;;4.97;;
74102;SDS011;62853;46.166;3.640;2023-04-24T09:05:12;26.48;;;10.43;;
74102;SDS011;62853;46.166;3.640;2023-04-24T09:07:39;28.45;;;9.43;;
74102;SDS011;62853;46.166;3.640;2023-04-24T09:10:08;25.83;;;8.65;;
74102;SDS011;62853;46.166;3.640;2023-04-24T09:12:34;14.23;;;3.67;;
74102;SDS011;62853;46.166;3.640;2023-04-24T09:15:00;20.17;;;7.22;;
74102;SDS011;62853;46.166;3.640;2023-04-24T09:17:28;17.80;;;3.58;;
74102;SDS011;62853;46.166;3.640;2023-04-24T09:19:53;15.50;;;4.05;;
74102;SDS011;62853;46.166;3.640;2023-04-24T09:22:19;26.60;;;10.40;;
74102;SDS011;62853;46.166;3.640;2023-04-24T09:24:45;17.25;;;4.95;;
74102;SDS011;62853;46.166;3.640;2023-04-24T09:27:11;24.75;;;9.98;;
74102;SDS011;62853;46.166;3.640;2023-04-24T09:29:37;27.50;;;8.52;;
74102;SDS011;62853;46.166;3.640;2023-04-24T09:32:22;11.90;;;3.85;;
74102;SDS011;62853;46.166;3.640;2023-04-24T09:35:04;25.48;;;8.50;;
74102;SDS011;62853;46.166;3.640;2023-04-24T09:37:34;12.98;;;3.70;;
74102;SDS011;62853;46.166;3.640;2023-04-24T09:40:07;23.45;;;8.32;;
74102;SDS011;62853;46.166;3.640;2023-04-24T09:42:39;22.23;;;4.72;;
74102;SDS011;62853;46.166;3.640;2023-04-24T09:45:11;21.55;;;7.15;;
74102;SDS011;62853;46.166;3.640;2023-04-24T09:47:40;16.65;;;4.03;;
74102;SDS011;62853;46.166;3.640;2023-04-24T09:50:15;25.70;;;8.05;;
74102;SDS011;62853;46.166;3.640;2023-04-24T09:55:13;15.98;;;4.75;;
74102;SDS011;62853;46.166;3.640;2023-04-24T09:57:52;20.65;;;7.15;;
74102;SDS011;62853;46.166;3.640;2023-04-24T10:02:55;23.92;;;6.97;;
74102;SDS011;62853;46.166;3.640;2023-04-24T10:05:42;19.13;;;5.80;;
74102;SDS011;62853;46.166;3.640;2023-04-24T10:08:09;22.83;;;6.00;;
74102;SDS011;62853;46.166;3.640;2023-04-24T10:10:40;23.10;;;5.55;;
74102;SDS011;62853;46.166;3.640;2023-04-24T10:13:10;16.08;;;5.13;;
74102;SDS011;62853;46.166;3.640;2023-04-24T10:15:37;15.65;;;5.03;;
74102;SDS011;62853;46.166;3.640;2023-04-24T10:18:04;9.80;;;2.13;;
74102;SDS011;62853;46.166;3.640;2023-04-24T10:20:33;17.80;;;4.95;;
74102;SDS011;62853;46.166;3.640;2023-04-24T10:22:59;14.25;;;3.10;;
74102;SDS011;62853;46.166;3.640;2023-04-24T10:25:26;10.95;;;2.40;;
74102;SDS011;62853;46.166;3.640;2023-04-24T10:27:55;17.88;;;5.68;;
74102;SDS011;62853;46.166;3.640;2023-04-24T10:30:28;15.88;;;5.22;;
74102;SDS011;62853;46.166;3.640;2023-04-24T10:33:01;17.92;;;6.03;;
74102;SDS011;62853;46.166;3.640;2023-04-24T10:35:31;16.33;;;4.68;;
74102;SDS011;62853;46.166;3.640;2023-04-24T10:38:05;14.85;;;3.08;;
74102;SDS011;62853;46.166;3.640;2023-04-24T10:40:34;13.82;;;4.35;;
74102;SDS011;62853;46.166;3.640;2023-04-24T10:43:03;9.98;;;1.98;;
74102;SDS011;62853;46.166;3.640;2023-04-24T10:45:35;14.30;;;3.65;;
74102;SDS011;62853;46.166;3.640;2023-04-24T10:50:29;12.15;;;3.30;;
74102;SDS011;62853;46.166;3.640;2023-04-24T10:53:15;14.02;;;2.85;;
74102;SDS011;62853;46.166;3.640;2023-04-24T10:55:43;11.35;;;1.60;;
74102;SDS011;62853;46.166;3.640;2023-04-24T10:58:09;7.13;;;2.40;;
74102;SDS011;62853;46.166;3.640;2023-04-24T11:00:39;13.48;;;3.35;;
74102;SDS011;62853;46.166;3.640;2023-04-24T11:03:06;9.65;;;2.92;;
74102;SDS011;62853;46.166;3.640;2023-04-24T11:08:27;12.88;;;2.75;;
74102;SDS011;62853;46.166;3.640;2023-04-24T11:13:22;8.65;;;2.88;;
74102;SDS011;62853;46.166;3.640;2023-04-24T11:18:43;9.13;;;2.40;;
74102;SDS011;62853;46.166;3.640;2023-04-24T11:21:18;6.97;;;2.42;;
74102;SDS011;62853;46.166;3.640;2023-04-24T11:23:44;2.42;;;1.20;;
74102;SDS011;62853;46.166;3.640;2023-04-24T11:26:17;5.05;;;1.80;;
74102;SDS011;62853;46.166;3.640;2023-04-24T11:28:48;8.93;;;2.10;;
74102;SDS011;62853;46.166;3.640;2023-04-24T11:34:05;8.40;;;2.22;;
74102;SDS011;62853;46.166;3.640;2023-04-24T11:36:32;4.28;;;1.13;;
74102;SDS011;62853;46.166;3.640;2023-04-24T11:39:00;7.18;;;2.67;;
74102;SDS011;62853;46.166;3.640;2023-04-24T11:41:26;8.48;;;2.25;;
74102;SDS011;62853;46.166;3.640;2023-04-24T11:43:56;7.93;;;2.30;;
74102;SDS011;62853;46.166;3.640;2023-04-24T11:46:22;5.88;;;2.13;;
74102;SDS011;62853;46.166;3.640;2023-04-24T11:48:47;6.15;;;1.10;;
74102;SDS011;62853;46.166;3.640;2023-04-24T11:51:13;8.75;;;2.05;;
74102;SDS011;62853;46.166;3.640;2023-04-24T11:53:42;4.53;;;1.60;;
74102;SDS011;62853;46.166;3.640;2023-04-24T11:56:31;3.03;;;0.95;;
74102;SDS011;62853;46.166;3.640;2023-04-24T11:59:22;4.07;;;1.60;;
74102;SDS011;62853;46.166;3.640;2023-04-24T12:01:48;3.88;;;1.00;;
74102;SDS011;62853;46.166;3.640;2023-04-24T12:04:17;4.75;;;1.30;;
74102;SDS011;62853;46.166;3.640;2023-04-24T12:07:02;1.77;;;1.02;;
74102;SDS011;62853;46.166;3.640;2023-04-24T12:09:46;6.25;;;1.80;;
74102;SDS011;62853;46.166;3.640;2023-04-24T12:12:13;7.55;;;1.63;;
74102;SDS011;62853;46.166;3.640;2023-04-24T12:14:50;8.73;;;2.20;;
74102;SDS011;62853;46.166;3.640;2023-04-24T12:17:34;7.63;;;1.40;;
74102;SDS011;62853;46.166;3.640;2023-04-24T12:20:09;5.32;;;1.40;;
74102;SDS011;62853;46.166;3.640;2023-04-24T12:25:13;4.55;;;1.63;;
74102;SDS011;62853;46.166;3.640;2023-04-24T12:27:42;3.67;;;1.40;;
74102;SDS011;62853;46.166;3.640;2023-04-24T12:30:18;3.03;;;0.77;;
74102;SDS011;62853;46.166;3.640;2023-04-24T12:32:44;3.67;;;0.70;;
74102;SDS011;62853;46.166;3.640;2023-04-24T12:35:12;6.07;;;1.90;;
74102;SDS011;62853;46.166;3.640;2023-04-24T12:37:38;7.53;;;1.50;;
74102;SDS011;62853;46.166;3.640;2023-04-24T12:40:08;6.97;;;1.73;;
74102;SDS011;62853;46.166;3.640;2023-04-24T12:42:36;4.45;;;1.58;;
74102;SDS011;62853;46.166;3.640;2023-04-24T12:45:10;4.82;;;1.63;;
74102;SDS011;62853;46.166;3.640;2023-04-24T12:47:37;5.93;;;1.45;;
74102;SDS011;62853;46.166;3.640;2023-04-24T12:50:03;5.65;;;1.75;;
74102;SDS011;62853;46.166;3.640;2023-04-24T12:52:29;4.82;;;1.65;;
74102;SDS011;62853;46.166;3.640;2023-04-24T12:54:57;6.57;;;1.65;;
74102;SDS011;62853;46.166;3.640;2023-04-24T12:57:24;5.38;;;1.80;;
74102;SDS011;62853;46.166;3.640;2023-04-24T12:59:50;8.00;;;1.70;;
74102;SDS011;62853;46.166;3.640;2023-04-24T13:02:19;6.45;;;2.03;;
74102;SDS011;62853;46.166;3.640;2023-04-24T13:04:45;9.48;;;1.77;;
74102;SDS011;62853;46.166;3.640;2023-04-24T13:07:12;5.78;;;2.00;;
74102;SDS011;62853;46.166;3.640;2023-04-24T13:09:38;5.65;;;1.80;;
74102;SDS011;62853;46.166;3.640;2023-04-24T13:12:04;6.00;;;2.13;;
74102;SDS011;62853;46.166;3.640;2023-04-24T13:14:30;4.60;;;2.00;;
74102;SDS011;62853;46.166;3.640;2023-04-24T13:16:56;9.80;;;2.30;;
74102;SDS011;62853;46.166;3.640;2023-04-24T13:19:25;6.68;;;2.40;;
74102;SDS011;62853;46.166;3.640;2023-04-24T13:21:51;7.93;;;2.70;;
74102;SDS011;62853;46.166;3.640;2023-04-24T13:24:17;7.13;;;2.85;;
74102;SDS011;62853;46.166;3.640;2023-04-24T13:26:42;9.25;;;2.90;;
74102;SDS011;62853;46.166;3.640;2023-04-24T13:29:08;6.90;;;2.85;;
74102;SDS011;62853;46.166;3.640;2023-04-24T13:31:34;6.80;;;2.70;;
74102;SDS011;62853;46.166;3.640;2023-04-24T13:33:59;7.80;;;2.45;;
74102;SDS011;62853;46.166;3.640;2023-04-24T13:36:24;8.25;;;2.72;;
74102;SDS011;62853;46.166;3.640;2023-04-24T13:38:51;5.57;;;2.92;;
74102;SDS011;62853;46.166;3.640;2023-04-24T13:41:16;5.65;;;2.30;;
74102;SDS011;62853;46.166;3.640;2023-04-24T13:43:41;7.78;;;3.05;;
74102;SDS011;62853;46.166;3.640;2023-04-24T13:46:07;3.92;;;1.50;;
74102;SDS011;62853;46.166;3.640;2023-04-24T13:48:33;7.47;;;2.55;;
74102;SDS011;62853;46.166;3.640;2023-04-24T13:50:59;9.57;;;2.30;;
74102;SDS011;62853;46.166;3.640;2023-04-24T13:53:24;4.82;;;2.10;;
74102;SDS011;62853;46.166;3.640;2023-04-24T13:55:50;7.28;;;2.35;;
74102;SDS011;62853;46.166;3.640;2023-04-24T13:58:15;12.13;;;2.97;;
74102;SDS011;62853;46.166;3.640;2023-04-24T14:00:40;6.72;;;2.15;;
74102;SDS011;62853;46.166;3.640;2023-04-24T14:03:06;8.88;;;2.22;;
74102;SDS011;62853;46.166;3.640;2023-04-24T14:05:31;6.78;;;2.45;;
74102;SDS011;62853;46.166;3.640;2023-04-24T14:07:57;8.50;;;2.30;;
74102;SDS011;62853;46.166;3.640;2023-04-24T14:10:22;8.88;;;2.70;;
74102;SDS011;62853;46.166;3.640;2023-04-24T14:12:48;5.93;;;2.33;;
74102;SDS011;62853;46.166;3.640;2023-04-24T14:15:13;6.32;;;2.35;;
74102;SDS011;62853;46.166;3.640;2023-04-24T14:17:38;8.48;;;2.42;;
74102;SDS011;62853;46.166;3.640;2023-04-24T14:20:04;7.93;;;2.78;;
74102;SDS011;62853;46.166;3.640;2023-04-24T14:22:31;11.45;;;2.28;;
74102;SDS011;62853;46.166;3.640;2023-04-24T14:24:57;10.40;;;2.70;;
74102;SDS011;62853;46.166;3.640;2023-04-24T14:27:24;9.10;;;2.80;;
74102;SDS011;62853;46.166;3.640;2023-04-24T14:29:50;7.43;;;2.75;;
74102;SDS011;62853;46.166;3.640;2023-04-24T14:32:15;9.10;;;2.83;;
74102;SDS011;62853;46.166;3.640;2023-04-24T14:34:41;7.95;;;3.35;;
74102;SDS011;62853;46.166;3.640;2023-04-24T14:37:06;7.53;;;2.53;;
74102;SDS011;62853;46.166;3.640;2023-04-24T14:39:32;9.98;;;2.92;;
74102;SDS011;62853;46.166;3.640;2023-04-24T14:42:00;10.20;;;3.28;;
74102;SDS011;62853;46.166;3.640;2023-04-24T14:44:28;8.48;;;2.92;;
74102;SDS011;62853;46.166;3.640;2023-04-24T14:46:53;7.25;;;2.72;;
74102;SDS011;62853;46.166;3.640;2023-04-24T14:49:19;8.48;;;2.65;;
74102;SDS011;62853;46.166;3.640;2023-04-24T14:51:45;7.00;;;2.53;;
74102;SDS011;62853;46.166;3.640;2023-04-24T14:54:13;8.73;;;2.33;;